Time;durP1;ratioP1;P1;durP2;ratioP2;P2;SDS_P1;SDS_P2;PMS_P1;PMS_P2;Temp;Humidity;BMP_temperature;BMP_pressure;BME280_temperature;BME280_humidity;BME280_pressure;Samples;Min_cycle;Max_cycle;Signal;HPM_P1;HPM_P2
2022/04/16 00:00:19;;;;;;;21.85;12.52;;;;;;;9.42;84.34;103248.34;5035037;28;20310;-75
2022/04/16 00:02:48;;;;;;;23.73;13.85;;;;;;;9.41;83.86;103258.75;5037117;28;20486;-74
2022/04/16 00:05:16;;;;;;;21.98;13.60;;;;;;;9.46;83.61;103260.81;5033673;28;20053;-77
2022/04/16 00:07:44;;;;;;;21.58;13.15;;;;;;;9.48;83.27;103253.03;5036627;28;20047;-76
2022/04/16 00:10:13;;;;;;;23.65;14.02;;;;;;;9.45;83.37;103248.53;5036593;28;20055;-76
2022/04/16 00:12:42;;;;;;;23.75;13.57;;;;;;;9.49;82.96;103249.59;5041008;28;20112;-76
2022/04/16 00:15:11;;;;;;;24.27;14.60;;;;;;;9.44;83.19;103251.97;5037722;28;20061;-76
2022/04/16 00:17:39;;;;;;;25.75;14.35;;;;;;;9.40;84.27;103255.22;5036928;28;20053;-76
2022/04/16 00:20:11;;;;;;;22.83;14.23;;;;;;;9.40;83.82;103254.31;5054006;28;20794;-76
2022/04/16 00:22:38;;;;;;;22.38;14.90;;;;;;;9.37;83.59;103262.00;5031635;28;20045;-75
2022/04/16 00:25:07;;;;;;;23.23;14.30;;;;;;;9.37;82.07;103255.06;5044906;28;20526;-75
2022/04/16 00:27:37;;;;;;;23.25;14.77;;;;;;;9.36;82.11;103262.84;5033745;28;20580;-76
2022/04/16 00:30:06;;;;;;;24.10;14.15;;;;;;;9.31;82.21;103257.34;5044854;28;20049;-76
2022/04/16 00:32:35;;;;;;;20.77;13.63;;;;;;;9.32;82.48;103260.88;5042484;28;20051;-76
2022/04/16 00:35:03;;;;;;;23.77;14.57;;;;;;;9.35;82.89;103259.34;5039096;28;20059;-76
2022/04/16 00:37:31;;;;;;;22.55;14.20;;;;;;;9.35;83.31;103261.94;5042781;28;20045;-76
2022/04/16 00:39:59;;;;;;;27.38;15.00;;;;;;;9.37;83.22;103257.66;5047054;28;20079;-76
2022/04/16 00:42:32;;;;;;;27.10;14.27;;;;;;;9.33;82.74;103263.59;5035928;28;20053;-76
2022/04/16 00:45:01;;;;;;;25.67;14.32;;;;;;;9.37;82.07;103260.28;5038935;28;20268;-76
2022/04/16 00:47:29;;;;;;;23.88;14.02;;;;;;;9.33;82.49;103262.69;5039418;28;20048;-76
2022/04/16 00:50:00;;;;;;;23.98;14.38;;;;;;;9.28;82.98;103270.28;5046453;28;20650;-75
2022/04/16 00:52:28;;;;;;;26.42;15.45;;;;;;;9.30;82.69;103265.13;5039713;28;20156;-76
2022/04/16 00:54:59;;;;;;;23.40;14.90;;;;;;;9.24;83.30;103270.91;5043097;28;20057;-75
2022/04/16 00:57:27;;;;;;;24.45;13.57;;;;;;;9.26;83.33;103268.38;5042354;28;20053;-76
2022/04/16 00:59:55;;;;;;;20.65;13.98;;;;;;;9.19;83.48;103261.88;5041168;28;20048;-76
2022/04/16 01:02:24;;;;;;;24.17;14.75;;;;;;;9.24;83.37;103270.91;5041308;28;20095;-77
2022/04/16 01:04:53;;;;;;;23.52;13.63;;;;;;;9.20;83.11;103268.94;5037406;28;20057;-77
2022/04/16 01:07:24;;;;;;;26.73;14.38;;;;;;;9.13;83.71;103261.53;5033604;28;20063;-76
2022/04/16 01:09:53;;;;;;;22.13;13.63;;;;;;;9.19;83.27;103274.97;5043109;28;20131;-77
2022/04/16 01:12:21;;;;;;;20.88;12.68;;;;;;;9.15;82.16;103265.16;5039217;28;20150;-77
2022/04/16 01:14:50;;;;;;;22.60;13.52;;;;;;;9.11;81.40;103264.06;5037733;28;20125;-76
2022/04/16 01:17:18;;;;;;;21.92;13.25;;;;;;;9.00;81.78;103266.88;5033320;28;20046;-76
2022/04/16 01:19:47;;;;;;;22.88;13.75;;;;;;;9.01;81.86;103269.59;5051132;28;20044;-76
2022/04/16 01:22:16;;;;;;;22.85;14.45;;;;;;;9.03;82.22;103261.81;5041955;28;20056;-77
2022/04/16 01:24:47;;;;;;;23.75;13.75;;;;;;;9.01;82.67;103263.44;5036336;28;20128;-73
2022/04/16 01:27:15;;;;;;;23.33;13.85;;;;;;;9.07;81.99;103263.81;5040002;28;20122;-72
2022/04/16 01:29:44;;;;;;;22.48;13.27;;;;;;;9.05;81.96;103260.19;5035422;28;20045;-77
2022/04/16 01:32:12;;;;;;;22.02;13.73;;;;;;;9.02;82.47;103254.78;5040135;28;20044;-76
2022/04/16 01:34:40;;;;;;;25.70;15.05;;;;;;;8.95;82.93;103258.75;5037357;28;20072;-75
2022/04/16 01:37:09;;;;;;;23.38;14.43;;;;;;;8.88;83.00;103255.69;5044646;28;20584;-75
2022/04/16 01:39:37;;;;;;;21.70;13.35;;;;;;;8.80;83.60;103258.75;5041556;28;20084;-75
2022/04/16 01:42:07;;;;;;;20.95;13.55;;;;;;;8.73;83.74;103256.59;5039874;28;20041;-72
2022/04/16 01:44:35;;;;;;;20.58;12.55;;;;;;;8.60;84.87;103256.69;5041705;28;20081;-76
2022/04/16 01:47:03;;;;;;;26.08;14.60;;;;;;;8.55;85.25;103255.50;5039419;28;20095;-72
2022/04/16 01:49:32;;;;;;;23.08;14.02;;;;;;;8.57;84.87;103253.88;5041983;28;20095;-75
2022/04/16 01:52:00;;;;;;;19.38;13.05;;;;;;;8.53;85.16;103255.41;5038063;28;20523;-75
2022/04/16 01:54:28;;;;;;;23.85;14.23;;;;;;;8.50;85.22;103249.09;5037983;28;20059;-75
2022/04/16 01:56:56;;;;;;;23.25;13.85;;;;;;;8.53;85.51;103255.41;5045806;28;20476;-75
2022/04/16 01:59:27;;;;;;;24.73;14.38;;;;;;;8.44;85.80;103253.94;5040831;28;20132;-75
2022/04/16 02:01:56;;;;;;;22.40;13.75;;;;;;;8.35;86.51;103253.41;5040878;28;20041;-76
2022/04/16 02:04:24;;;;;;;21.95;13.88;;;;;;;8.24;87.07;103257.06;5043859;28;20091;-77
2022/04/16 02:06:52;;;;;;;23.92;14.07;;;;;;;8.28;87.36;103265.19;5039292;28;20119;-76
2022/04/16 02:09:20;;;;;;;27.17;14.27;;;;;;;8.16;87.57;103269.66;5039749;28;20103;-76
2022/04/16 02:11:48;;;;;;;23.80;13.90;;;;;;;8.21;87.49;103273.47;5044413;28;20044;-76
2022/04/16 02:14:16;;;;;;;25.05;14.35;;;;;;;8.07;88.20;103270.00;5036794;28;20129;-76
2022/04/16 02:16:45;;;;;;;21.98;13.38;;;;;;;8.04;88.12;103266.28;5046935;28;20065;-77
2022/04/16 02:19:14;;;;;;;24.85;13.93;;;;;;;7.99;88.58;103271.22;5043594;28;20143;-76
2022/04/16 02:21:42;;;;;;;23.33;13.35;;;;;;;7.96;88.99;103271.03;5049028;28;20074;-77
2022/04/16 02:24:10;;;;;;;21.85;12.95;;;;;;;7.95;89.16;103277.06;5042751;28;20061;-76
2022/04/16 02:26:38;;;;;;;22.08;13.77;;;;;;;7.94;89.62;103277.88;5045546;28;20132;-76
2022/04/16 02:29:08;;;;;;;22.45;14.05;;;;;;;7.95;89.50;103284.00;5039644;28;20041;-76
2022/04/16 02:31:37;;;;;;;24.67;13.80;;;;;;;7.85;90.08;103274.69;5045189;28;20053;-76
2022/04/16 02:34:08;;;;;;;24.35;14.05;;;;;;;7.80;90.45;103281.34;5040655;28;20143;-75
2022/04/16 02:36:36;;;;;;;21.55;14.02;;;;;;;7.72;90.88;103290.41;5040139;28;20083;-75
2022/04/16 02:39:04;;;;;;;24.15;13.48;;;;;;;7.70;90.81;103286.78;5040770;28;20130;-76
2022/04/16 02:41:32;;;;;;;23.42;12.65;;;;;;;7.64;91.26;103286.38;5040916;28;20053;-75
2022/04/16 02:44:00;;;;;;;21.70;12.55;;;;;;;7.58;90.95;103286.00;5045175;28;20067;-75
2022/04/16 02:49:15;;;;;;;26.02;14.13;;;;;;;7.54;91.32;103296.25;5041886;28;20131;-76
2022/04/16 02:51:43;;;;;;;24.98;13.65;;;;;;;7.54;91.06;103291.03;5040032;28;20048;-75
2022/04/16 02:54:11;;;;;;;23.67;14.27;;;;;;;7.48;91.54;103294.94;5038509;28;20248;-75
2022/04/16 02:56:39;;;;;;;24.80;14.18;;;;;;;7.47;91.34;103294.03;5043410;28;20054;-75
2022/04/16 02:59:07;;;;;;;25.17;13.73;;;;;;;7.45;91.59;103306.09;5040004;28;20045;-75
2022/04/16 03:01:35;;;;;;;23.23;14.50;;;;;;;7.38;91.89;103306.50;5038467;28;20558;-75
2022/04/16 03:04:03;;;;;;;24.67;13.45;;;;;;;7.37;91.84;103307.28;5030370;28;20072;-75
2022/04/16 03:06:32;;;;;;;20.52;14.35;;;;;;;7.31;92.09;103306.00;5036276;28;20163;-75
2022/04/16 03:09:01;;;;;;;25.08;14.88;;;;;;;7.31;92.22;103306.91;5033739;28;20059;-76
2022/04/16 03:11:28;;;;;;;23.05;14.30;;;;;;;7.28;92.38;103306.69;5038985;28;20052;-76
2022/04/16 03:13:56;;;;;;;23.13;14.45;;;;;;;7.29;92.28;103299.75;5037951;28;20055;-75
2022/04/16 03:19:10;;;;;;;27.92;14.70;;;;;;;7.19;92.66;103295.69;5039813;28;20084;-74
2022/04/16 03:21:40;;;;;;;24.13;13.20;;;;;;;7.15;93.14;103299.78;5036555;28;20091;-75
2022/04/16 03:24:08;;;;;;;22.83;13.07;;;;;;;7.17;93.10;103298.19;5036223;28;20350;-76
2022/04/16 03:26:36;;;;;;;25.17;13.43;;;;;;;7.22;92.76;103306.31;5037177;28;20084;-76
2022/04/16 03:29:03;;;;;;;28.55;15.20;;;;;;;7.12;92.99;103301.28;5032021;28;20044;-76
2022/04/16 03:31:31;;;;;;;24.42;13.93;;;;;;;7.07;93.27;103301.00;5040685;28;20049;-75
2022/04/16 03:33:59;;;;;;;26.13;14.40;;;;;;;7.04;93.49;103303.41;5037143;28;20054;-76
2022/04/16 03:36:27;;;;;;;27.20;14.20;;;;;;;6.99;93.90;103302.19;5036537;28;20072;-76
2022/04/16 03:38:57;;;;;;;24.85;14.73;;;;;;;6.98;94.06;103307.28;5036614;28;20128;-76
2022/04/16 03:41:25;;;;;;;27.98;16.23;;;;;;;6.95;94.28;103309.69;5033968;28;20438;-76
2022/04/16 03:43:52;;;;;;;25.95;14.77;;;;;;;6.94;94.23;103307.91;5043003;28;20052;-76
2022/04/16 03:46:22;;;;;;;26.77;15.02;;;;;;;6.91;94.25;103307.69;5043314;28;20443;-76
2022/04/16 03:48:50;;;;;;;23.92;13.52;;;;;;;6.89;94.63;103308.50;5039391;28;20197;-76
2022/04/16 03:51:18;;;;;;;26.90;14.70;;;;;;;6.89;94.42;103315.41;5034081;28;20209;-75
2022/04/16 03:53:45;;;;;;;26.15;15.02;;;;;;;6.80;95.19;103312.19;5031551;28;20049;-75
2022/04/16 04:01:45;;;;;;;26.70;15.40;;;;;;;6.72;95.77;103334.22;5039764;28;20140;-75
2022/04/16 04:04:13;;;;;;;29.60;15.45;;;;;;;6.70;95.32;103328.00;5041051;28;20128;-75
2022/04/16 04:06:41;;;;;;;26.50;15.43;;;;;;;6.65;95.85;103329.38;5048681;28;20140;-75
2022/04/16 04:09:09;;;;;;;26.73;14.43;;;;;;;6.62;95.75;103326.56;5036407;28;20049;-76
2022/04/16 04:11:38;;;;;;;25.38;14.32;;;;;;;6.57;96.01;103329.75;5045784;28;20054;-76
2022/04/16 04:14:06;;;;;;;25.45;14.57;;;;;;;6.53;95.45;103324.22;5037002;28;20049;-75
2022/04/16 04:16:34;;;;;;;32.13;15.63;;;;;;;6.49;96.68;103333.53;5042430;28;20485;-75
2022/04/16 04:19:02;;;;;;;31.95;16.35;;;;;;;6.45;96.87;103336.72;5040734;28;20160;-75
2022/04/16 04:21:29;;;;;;;25.40;15.27;;;;;;;6.41;97.15;103336.41;5037187;28;20284;-76
2022/04/16 04:23:57;;;;;;;30.90;16.08;;;;;;;6.38;97.19;103338.81;5044752;28;20130;-75
2022/04/16 04:26:25;;;;;;;29.45;16.15;;;;;;;6.37;96.94;103343.13;5036708;28;20149;-76
2022/04/16 04:28:54;;;;;;;30.40;15.63;;;;;;;6.33;97.81;103345.41;5037423;28;20144;-75
2022/04/16 04:31:23;;;;;;;26.52;14.93;;;;;;;6.30;97.34;103347.78;5041241;28;20128;-75
2022/04/16 04:33:55;;;;;;;29.33;15.45;;;;;;;6.29;97.71;103348.59;5035550;28;20672;-75
2022/04/16 04:36:25;;;;;;;30.13;15.07;;;;;;;6.29;98.10;103349.47;5040783;28;20069;-76
2022/04/16 04:38:53;;;;;;;30.85;16.10;;;;;;;6.26;98.27;103354.47;5037978;28;20055;-74
2022/04/16 04:41:21;;;;;;;28.45;14.57;;;;;;;6.21;98.54;103359.41;5035512;28;20498;-75
2022/04/16 04:43:49;;;;;;;28.58;16.63;;;;;;;6.20;98.49;103368.00;5042276;28;20057;-74
2022/04/16 04:46:18;;;;;;;34.13;17.00;;;;;;;6.21;98.17;103363.72;5036910;28;20497;-77
2022/04/16 04:48:46;;;;;;;29.67;17.50;;;;;;;6.16;99.26;103367.69;5036950;28;20095;-76
2022/04/16 04:51:14;;;;;;;33.55;17.02;;;;;;;6.19;98.90;103358.38;5037445;28;20042;-76
2022/04/16 04:53:41;;;;;;;33.03;15.60;;;;;;;6.16;98.88;103360.78;5042200;28;20061;-76
2022/04/16 04:56:10;;;;;;;31.70;17.05;;;;;;;6.15;99.18;103356.34;5040441;28;20144;-76
2022/04/16 04:58:38;;;;;;;27.77;15.75;;;;;;;6.14;99.68;103356.25;5045804;28;20053;-72
2022/04/16 05:01:05;;;;;;;30.23;16.92;;;;;;;6.13;99.45;103360.56;5046550;28;20045;-72
2022/04/16 05:03:35;;;;;;;32.15;16.30;;;;;;;6.15;99.37;103360.66;5055643;28;20477;-72
2022/04/16 05:06:02;;;;;;;32.33;15.88;;;;;;;6.13;100.00;103362.25;5047763;28;20076;-73
2022/04/16 05:08:30;;;;;;;32.70;17.80;;;;;;;6.13;99.48;103363.16;5043074;28;20576;-73
2022/04/16 05:10:58;;;;;;;32.72;16.67;;;;;;;6.12;99.88;103366.56;5045003;28;20051;-74
2022/04/16 05:13:26;;;;;;;34.58;16.98;;;;;;;6.12;99.97;103371.78;5049768;28;20159;-72
2022/04/16 05:15:55;;;;;;;30.83;17.65;;;;;;;6.13;99.83;103367.47;5045068;28;20055;-72
2022/04/16 05:18:31;;;;;;;33.20;16.75;;;;;;;6.17;99.78;103374.72;5039734;28;20159;-73
2022/04/16 05:21:00;;;;;;;37.08;17.20;;;;;;;6.20;99.92;103381.03;5048431;28;20056;-73
2022/04/16 05:23:28;;;;;;;29.58;15.98;;;;;;;6.25;99.76;103381.34;5047250;28;20279;-76
2022/04/16 05:25:56;;;;;;;34.00;16.45;;;;;;;6.31;100.00;103384.38;5043414;28;20065;-77
2022/04/16 05:28:25;;;;;;;29.85;16.60;;;;;;;6.37;99.71;103383.91;5040567;28;20053;-75
2022/04/16 05:30:59;;;;;;;31.38;15.80;;;;;;;6.46;99.33;103395.00;5039554;28;20057;-72
2022/04/16 05:36:15;;;;;;;32.67;16.75;;;;;;;6.66;99.36;103397.28;5047967;28;20131;-72
2022/04/16 05:38:43;;;;;;;35.50;16.00;;;;;;;6.78;98.26;103395.53;5041443;28;20146;-73
2022/04/16 05:41:11;;;;;;;35.65;17.75;;;;;;;6.84;98.64;103395.97;5042717;28;20535;-72
2022/04/16 05:43:39;;;;;;;33.72;16.30;;;;;;;7.02;98.13;103396.31;5040455;28;20084;-72
2022/04/16 05:46:08;;;;;;;35.70;17.52;;;;;;;7.09;97.52;103400.25;5047786;28;20482;-72
2022/04/16 05:48:36;;;;;;;34.50;17.02;;;;;;;7.26;97.33;103402.28;5033837;28;20144;-76
2022/04/16 05:51:05;;;;;;;35.42;17.38;;;;;;;7.40;96.66;103404.09;5036842;28;20056;-76
2022/04/16 05:53:34;;;;;;;32.03;18.20;;;;;;;7.43;96.19;103403.41;5037794;28;20061;-76
2022/04/16 05:56:03;;;;;;;35.42;16.92;;;;;;;7.63;95.72;103403.00;5040593;28;20052;-77
2022/04/16 05:58:31;;;;;;;34.35;18.55;;;;;;;7.62;95.17;103410.75;5037937;28;20057;-76
2022/04/16 06:01:00;;;;;;;35.08;16.67;;;;;;;7.86;94.99;103408.03;5037916;28;20096;-76
2022/04/16 06:03:29;;;;;;;33.30;17.88;;;;;;;7.97;93.65;103402.59;5039389;28;20057;-72
2022/04/16 06:06:00;;;;;;;32.40;16.58;;;;;;;8.11;93.30;103402.69;5037398;28;20413;-73
2022/04/16 06:08:28;;;;;;;36.33;18.42;;;;;;;8.06;92.72;103411.94;5039286;28;20513;-73
2022/04/16 06:10:58;;;;;;;30.27;16.45;;;;;;;8.30;92.84;103411.69;5041052;28;20053;-73
2022/04/16 06:13:30;;;;;;;32.28;17.27;;;;;;;8.45;91.12;103410.06;5038921;28;20106;-73
2022/04/16 06:15:58;;;;;;;35.10;18.63;;;;;;;8.51;91.44;103420.91;5045719;28;20059;-73
2022/04/16 06:18:27;;;;;;;32.33;18.35;;;;;;;8.65;90.17;103416.53;5037140;28;20049;-73
2022/04/16 06:20:56;;;;;;;32.88;17.90;;;;;;;8.69;89.48;103418.53;5037276;28;20059;-72
2022/04/16 06:23:24;;;;;;;33.55;17.73;;;;;;;8.77;89.41;103423.41;5042866;28;20049;-73
2022/04/16 06:25:52;;;;;;;33.85;17.92;;;;;;;8.88;88.75;103429.31;5037910;28;20045;-73
2022/04/16 06:28:21;;;;;;;35.03;16.67;;;;;;;9.22;88.79;103426.13;5042843;28;20144;-72
2022/04/16 06:30:49;;;;;;;31.75;17.00;;;;;;;9.37;87.71;103424.38;5039519;28;20154;-73
2022/04/16 06:33:17;;;;;;;32.88;17.17;;;;;;;9.30;86.85;103423.16;5046394;28;20061;-72
2022/04/16 06:35:44;;;;;;;35.50;18.83;;;;;;;9.38;86.49;103432.34;5034222;28;20063;-73
2022/04/16 06:38:12;;;;;;;31.30;18.33;;;;;;;9.60;86.09;103436.22;5050817;28;20484;-73
2022/04/16 06:40:40;;;;;;;34.90;18.92;;;;;;;9.64;85.48;103427.72;5041578;28;20102;-73
2022/04/16 06:43:08;;;;;;;33.65;17.95;;;;;;;9.78;85.78;103430.31;5041872;28;20048;-73
2022/04/16 06:45:38;;;;;;;34.10;17.65;;;;;;;9.94;84.94;103429.50;5036366;28;20053;-73
2022/04/16 06:48:06;;;;;;;34.00;18.70;;;;;;;10.11;83.64;103439.22;5044956;28;20057;-73
2022/04/16 06:50:34;;;;;;;37.05;18.40;;;;;;;10.14;83.50;103439.38;5043365;28;20045;-72
2022/04/16 06:53:02;;;;;;;34.45;19.13;;;;;;;10.10;83.10;103437.41;5037557;28;20140;-73
2022/04/16 06:55:30;;;;;;;32.58;17.63;;;;;;;9.94;82.88;103439.97;5039188;28;20053;-73
2022/04/16 06:57:58;;;;;;;36.80;18.83;;;;;;;9.98;84.21;103439.34;5035381;28;20504;-72
2022/04/16 07:00:26;;;;;;;37.53;18.90;;;;;;;10.26;82.85;103444.44;5040523;28;20057;-72
2022/04/16 07:02:57;;;;;;;34.05;19.15;;;;;;;10.17;82.46;103438.66;5041724;28;20056;-75
2022/04/16 07:05:25;;;;;;;33.15;18.30;;;;;;;10.48;82.05;103439.53;5039632;28;20102;-73
2022/04/16 07:07:53;;;;;;;36.33;18.17;;;;;;;10.78;81.62;103437.69;5038614;28;20119;-73
2022/04/16 07:10:20;;;;;;;39.92;20.40;;;;;;;10.80;81.76;103430.78;5033502;28;20531;-73
2022/04/16 07:12:48;;;;;;;37.05;19.10;;;;;;;10.92;80.86;103437.50;5043064;28;20123;-73
2022/04/16 07:15:16;;;;;;;33.55;18.05;;;;;;;11.08;79.55;103440.13;5042890;28;20564;-73
2022/04/16 07:17:45;;;;;;;36.88;18.67;;;;;;;10.81;80.61;103443.09;5044086;28;20259;-73
2022/04/16 07:20:14;;;;;;;39.35;19.27;;;;;;;11.00;80.36;103444.06;5036980;28;20136;-74
2022/04/16 07:22:42;;;;;;;36.83;19.83;;;;;;;10.99;80.18;103442.28;5044283;28;20053;-73
2022/04/16 07:25:10;;;;;;;36.33;20.00;;;;;;;11.08;79.70;103448.00;5040041;28;20053;-73
2022/04/16 07:27:38;;;;;;;33.83;18.75;;;;;;;11.32;79.63;103437.88;5033362;28;20056;-73
2022/04/16 07:30:07;;;;;;;36.00;19.48;;;;;;;11.03;80.14;103444.25;5037706;28;20065;-73
2022/04/16 07:32:35;;;;;;;37.72;19.48;;;;;;;11.20;80.03;103443.41;5043560;28;20120;-73
2022/04/16 07:35:03;;;;;;;35.35;18.60;;;;;;;11.43;79.40;103448.13;5035604;28;20049;-73
2022/04/16 07:37:33;;;;;;;34.45;20.13;;;;;;;11.68;78.42;103438.81;5037366;28;20058;-73
2022/04/16 07:40:01;;;;;;;35.40;19.25;;;;;;;11.62;77.35;103449.00;5048604;28;20865;-73
2022/04/16 07:42:31;;;;;;;35.08;18.95;;;;;;;11.90;76.82;103446.97;5040025;28;20128;-73
2022/04/16 07:45:00;;;;;;;31.55;18.20;;;;;;;12.10;76.27;103450.56;5040889;28;20058;-73
2022/04/16 07:47:28;;;;;;;37.40;19.60;;;;;;;12.00;76.16;103443.97;5034316;28;20053;-74
2022/04/16 07:49:56;;;;;;;38.55;19.45;;;;;;;11.96;76.74;103442.00;5034797;28;20202;-73
2022/04/16 07:52:25;;;;;;;37.45;18.15;;;;;;;12.25;75.07;103445.16;5036172;28;20493;-74
2022/04/16 07:54:54;;;;;;;41.30;19.98;;;;;;;12.42;74.34;103452.13;5039650;28;20056;-73
2022/04/16 07:57:22;;;;;;;35.00;19.15;;;;;;;12.43;75.02;103440.75;5038462;28;20060;-73
2022/04/16 07:59:49;;;;;;;37.95;19.52;;;;;;;12.24;74.60;103444.25;5045819;28;20049;-74
2022/04/16 08:02:17;;;;;;;37.22;18.60;;;;;;;12.32;74.73;103441.97;5040474;28;20056;-73
2022/04/16 08:04:45;;;;;;;36.28;18.85;;;;;;;12.58;73.81;103430.91;5045659;28;20049;-73
2022/04/16 08:07:13;;;;;;;34.45;18.75;;;;;;;12.97;73.51;103436.19;5040865;28;20059;-73
2022/04/16 08:09:41;;;;;;;34.40;19.48;;;;;;;12.98;72.60;103435.34;5039632;28;20161;-77
2022/04/16 08:12:10;;;;;;;36.38;20.15;;;;;;;12.63;72.52;103429.41;5040232;28;20057;-77
2022/04/16 08:14:38;;;;;;;35.22;19.38;;;;;;;12.74;73.63;103435.16;5045112;28;20075;-76
2022/04/16 08:17:07;;;;;;;34.65;18.55;;;;;;;12.83;73.17;103438.19;5044900;28;20088;-75
2022/04/16 08:19:35;;;;;;;32.67;18.83;;;;;;;12.86;71.91;103432.16;5041992;28;20049;-78
2022/04/16 08:22:07;;;;;;;32.65;18.17;;;;;;;13.00;72.12;103437.22;5042395;28;20304;-76
2022/04/16 08:24:42;;;;;;;35.33;17.65;;;;;;;13.44;70.75;103437.41;5043180;28;20080;-76
2022/04/16 08:27:11;;;;;;;34.60;19.40;;;;;;;13.51;70.03;103444.75;5044085;28;20135;-76
2022/04/16 08:29:39;;;;;;;33.42;18.00;;;;;;;13.22;71.21;103444.38;5043185;28;20544;-76
2022/04/16 08:32:08;;;;;;;32.55;18.10;;;;;;;13.37;69.57;103434.50;5040612;28;20053;-76
2022/04/16 08:34:52;;;;;;;31.10;18.27;;;;;;;13.40;70.24;103437.28;5041396;28;20053;-76
2022/04/16 08:37:20;;;;;;;31.23;16.90;;;;;;;13.68;69.80;103438.41;5047357;28;20099;-76
2022/04/16 08:39:47;;;;;;;31.23;17.65;;;;;;;13.04;71.00;103454.06;5039127;28;20352;-76
2022/04/16 08:42:17;;;;;;;34.08;16.10;;;;;;;13.51;69.64;103457.91;5042341;28;20080;-76
2022/04/16 08:44:45;;;;;;;33.80;18.15;;;;;;;13.89;69.62;103454.22;5027983;28;20056;-73
2022/04/16 08:47:14;;;;;;;29.05;16.73;;;;;;;13.95;68.38;103446.56;5045016;28;20239;-73
2022/04/16 08:49:43;;;;;;;32.92;17.25;;;;;;;14.10;67.82;103448.91;5039847;28;20408;-73
2022/04/16 08:52:11;;;;;;;31.20;16.52;;;;;;;14.31;67.32;103448.03;5044545;28;20037;-73
2022/04/16 08:54:40;;;;;;;28.92;16.13;;;;;;;14.03;67.11;103451.31;5039914;28;20052;-73
2022/04/16 08:57:08;;;;;;;29.35;17.20;;;;;;;14.25;67.92;103446.91;5045765;28;20045;-74
2022/04/16 08:59:38;;;;;;;30.45;17.30;;;;;;;14.22;67.69;103446.78;5044448;28;20115;-73
2022/04/16 09:02:06;;;;;;;33.33;18.05;;;;;;;13.91;67.59;103445.53;5041269;28;20041;-73
2022/04/16 09:04:34;;;;;;;28.52;16.70;;;;;;;14.15;68.35;103445.63;5047831;28;20048;-75
2022/04/16 09:07:03;;;;;;;33.92;17.70;;;;;;;14.07;68.86;103433.88;5035485;28;20049;-76
2022/04/16 09:09:31;;;;;;;32.10;17.15;;;;;;;14.01;68.42;103441.53;5044486;28;20567;-76
2022/04/16 09:11:59;;;;;;;31.92;17.10;;;;;;;14.04;67.86;103450.47;5044336;28;20143;-76
2022/04/16 09:14:34;;;;;;;31.27;18.33;;;;;;;13.96;67.23;103441.34;5047689;28;20066;-77
2022/04/16 09:17:08;;;;;;;29.48;16.98;;;;;;;14.21;66.38;103440.59;5041747;28;20239;-76
2022/04/16 09:19:37;;;;;;;29.20;15.68;;;;;;;14.04;66.81;103447.84;5044803;28;20100;-76
2022/04/16 09:22:06;;;;;;;29.17;16.38;;;;;;;14.36;65.38;103433.28;5038757;28;20547;-76
2022/04/16 09:24:47;;;;;;;32.25;16.67;;;;;;;14.64;65.24;103442.25;5049500;28;20068;-73
2022/04/16 09:27:15;;;;;;;31.40;16.90;;;;;;;14.78;64.38;103434.84;5045399;28;20151;-73
2022/04/16 09:29:43;;;;;;;26.35;14.98;;;;;;;14.79;63.61;103439.28;5038099;28;20067;-74
2022/04/16 09:32:22;;;;;;;32.50;18.75;;;;;;;14.93;64.83;103436.31;5022835;28;20401;-75
2022/04/16 09:34:49;;;;;;;29.42;17.30;;;;;;;15.02;64.56;103434.00;5034403;28;20152;-74
2022/04/16 09:37:17;;;;;;;33.13;17.77;;;;;;;15.42;63.49;103429.22;5033754;28;20049;-72
2022/04/16 09:39:45;;;;;;;24.30;14.05;;;;;;;15.25;60.90;103434.81;5043059;28;20088;-73
2022/04/16 09:42:13;;;;;;;26.58;14.93;;;;;;;15.26;61.84;103438.38;5040716;28;20041;-73
2022/04/16 09:44:43;;;;;;;27.75;15.40;;;;;;;15.13;62.14;103428.22;5040341;28;20049;-73
2022/04/16 09:47:12;;;;;;;26.23;15.30;;;;;;;15.37;61.97;103424.69;5044672;28;20110;-73
2022/04/16 09:49:42;;;;;;;28.60;15.05;;;;;;;15.26;61.39;103425.16;5038848;28;20102;-73
2022/04/16 09:52:12;;;;;;;26.90;15.02;;;;;;;15.68;60.76;103421.34;5039935;28;20385;-75
2022/04/16 09:54:40;;;;;;;25.13;14.18;;;;;;;15.75;60.31;103411.84;5034877;28;20508;-73
2022/04/16 09:57:09;;;;;;;24.15;14.07;;;;;;;15.54;60.39;103421.72;5041247;28;20049;-73
2022/04/16 09:59:40;;;;;;;26.23;14.75;;;;;;;15.53;60.95;103410.22;5035850;28;20056;-74
2022/04/16 10:02:13;;;;;;;29.45;14.68;;;;;;;15.45;60.84;103422.31;5039657;28;20052;-73
2022/04/16 10:04:44;;;;;;;27.58;13.50;;;;;;;15.36;59.42;103425.53;5040629;28;20045;-73
2022/04/16 10:07:17;;;;;;;31.63;14.95;;;;;;;15.35;59.96;103415.78;5040946;28;20055;-76
2022/04/16 10:09:53;;;;;;;22.52;12.00;;;;;;;15.57;59.34;103421.84;5046451;28;20055;-76
2022/04/16 10:15:14;;;;;;;24.67;13.52;;;;;;;15.58;58.88;103426.28;5038774;28;20500;-76
2022/04/16 10:17:50;;;;;;;27.33;14.43;;;;;;;15.59;59.68;103420.16;5037085;28;20148;-76
2022/04/16 10:20:21;;;;;;;22.55;12.27;;;;;;;15.50;59.20;103419.81;5040173;28;20087;-76
2022/04/16 10:22:55;;;;;;;23.08;13.52;;;;;;;15.88;58.22;103419.34;5041608;28;20095;-76
2022/04/16 10:25:34;;;;;;;21.98;13.32;;;;;;;16.40;57.24;103413.03;5037130;28;20060;-76
2022/04/16 10:28:07;;;;;;;24.83;12.52;;;;;;;16.31;56.12;103415.41;5041340;28;20053;-76
2022/04/16 10:30:40;;;;;;;20.60;11.23;;;;;;;16.52;55.88;103410.75;5044806;28;20141;-76
2022/04/16 10:33:18;;;;;;;20.60;11.70;;;;;;;16.54;54.56;103408.13;5037726;28;20534;-75
2022/04/16 10:35:52;;;;;;;21.48;11.93;;;;;;;16.23;53.95;103411.63;5035894;28;20531;-76
2022/04/16 10:38:24;;;;;;;16.73;9.52;;;;;;;16.02;53.28;103423.31;5039610;28;20072;-76
2022/04/16 10:40:57;;;;;;;16.13;8.13;;;;;;;16.11;52.98;103421.81;5040191;28;20268;-76
2022/04/16 10:43:30;;;;;;;19.70;11.10;;;;;;;16.07;53.50;103414.63;5041845;28;20127;-76
2022/04/16 10:46:01;;;;;;;19.95;11.32;;;;;;;16.05;53.82;103411.03;5039766;28;20061;-77
2022/04/16 10:48:32;;;;;;;18.23;10.15;;;;;;;15.78;53.71;103411.94;5038015;28;20052;-76
2022/04/16 10:51:03;;;;;;;20.92;11.90;;;;;;;16.29;54.88;103402.09;5037714;28;20132;-76
2022/04/16 10:53:33;;;;;;;21.17;12.35;;;;;;;16.54;54.89;103409.03;5036912;28;20107;-76
2022/04/16 10:56:20;;;;;;;19.45;11.50;;;;;;;16.81;53.32;103403.63;5040489;28;20433;-77
2022/04/16 10:59:01;;;;;;;20.70;11.27;;;;;;;16.67;52.46;103411.19;5014987;28;20814;-73
2022/04/16 11:01:31;;;;;;;18.70;10.00;;;;;;;16.77;52.57;103403.50;5037623;28;20054;-73
2022/04/16 11:03:59;;;;;;;20.35;11.40;;;;;;;16.87;52.09;103403.81;5034966;28;20152;-76
2022/04/16 11:06:35;;;;;;;19.83;11.73;;;;;;;16.83;53.30;103401.94;5041258;28;20054;-73
2022/04/16 11:09:03;;;;;;;19.95;11.90;;;;;;;16.61;54.27;103413.66;5037625;28;20109;-73
2022/04/16 11:11:32;;;;;;;21.45;11.45;;;;;;;16.77;54.36;103403.50;5032770;28;20055;-73
2022/04/16 11:14:01;;;;;;;23.58;13.48;;;;;;;16.55;54.35;103410.84;5035934;28;20085;-73
2022/04/16 11:16:29;;;;;;;19.83;11.50;;;;;;;16.55;54.26;103415.22;5036142;28;20049;-73
2022/04/16 11:18:58;;;;;;;20.52;11.23;;;;;;;16.40;54.34;103410.38;5037270;28;20056;-73
2022/04/16 11:21:29;;;;;;;20.23;11.25;;;;;;;16.80;53.95;103407.13;5040215;28;20139;-73
2022/04/16 11:24:06;;;;;;;17.92;11.77;;;;;;;16.81;53.88;103402.75;5037233;28;20305;-73
2022/04/16 11:34:55;;;;;;;15.90;8.45;;;;;;;16.72;50.32;103398.06;5036652;28;20052;-76
2022/04/16 11:37:32;;;;;;;15.32;8.85;;;;;;;16.85;50.57;103383.41;5035104;28;20092;-78
2022/04/16 11:40:05;;;;;;;17.85;9.82;;;;;;;16.99;50.30;103392.66;5036838;28;20647;-73
2022/04/16 11:42:35;;;;;;;16.70;9.15;;;;;;;17.10;49.72;103391.19;5036321;28;20473;-73
2022/04/16 11:45:10;;;;;;;14.75;7.90;;;;;;;17.16;49.46;103391.34;5035865;28;20357;-72
2022/04/16 11:47:39;;;;;;;15.25;8.18;;;;;;;17.23;48.70;103380.03;5037488;28;20076;-72